Time;durP1;ratioP1;P1;durP2;ratioP2;P2;SDS_P1;SDS_P2;PMS_P1;PMS_P2;Temp;Humidity;BMP_temperature;BMP_pressure;BME280_temperature;BME280_humidity;BME280_pressure;Samples;Min_cycle;Max_cycle;Signal;HPM_P1;HPM_P2
2022/06/07 00:01:39;;;;;;;2.65;1.08;;;;;;;15.28;70.42;97368.97;5064422;28;20142;-60
2022/06/07 00:04:06;;;;;;;2.28;1.23;;;;;;;15.33;70.86;97366.19;5063796;28;20044;-60
2022/06/07 00:06:33;;;;;;;2.25;0.90;;;;;;;15.37;69.37;97372.72;5064255;28;20044;-60
2022/06/07 00:08:59;;;;;;;1.52;1.10;;;;;;;15.43;68.40;97379.78;5064548;28;20036;-60
2022/06/07 00:11:26;;;;;;;2.78;1.08;;;;;;;15.53;67.08;97381.63;5063879;28;20044;-60
2022/06/07 00:13:52;;;;;;;3.08;0.90;;;;;;;15.53;67.27;97380.81;5064682;28;20048;-60
2022/06/07 00:16:19;;;;;;;1.40;0.77;;;;;;;15.51;67.19;97377.56;5063891;28;20416;-60
2022/06/07 00:18:46;;;;;;;1.38;0.88;;;;;;;15.51;67.43;97372.91;5064420;28;20101;-60
2022/06/07 00:21:13;;;;;;;3.53;1.02;;;;;;;15.48;67.47;97376.19;5064112;28;20051;-60
2022/06/07 00:23:39;;;;;;;1.40;0.80;;;;;;;15.45;67.60;97374.06;5066565;28;20040;-61
2022/06/07 00:26:06;;;;;;;1.50;0.80;;;;;;;15.37;67.48;97367.25;5068068;28;20059;-60
2022/06/07 00:28:33;;;;;;;5.80;1.27;;;;;;;15.37;67.70;97372.72;5067965;28;20106;-60
2022/06/07 00:31:00;;;;;;;1.98;0.90;;;;;;;15.34;67.88;97378.75;5066901;28;20135;-60
2022/06/07 00:33:27;;;;;;;3.60;0.95;;;;;;;15.27;68.03;97370.91;5068130;28;20043;-60
2022/06/07 00:35:54;;;;;;;1.83;1.00;;;;;;;15.24;67.75;97379.63;5067563;28;20041;-60
2022/06/07 00:38:20;;;;;;;2.30;1.00;;;;;;;15.25;70.40;97384.00;5066467;28;20442;-60
2022/06/07 00:40:47;;;;;;;1.80;1.00;;;;;;;15.22;70.64;97379.09;5066522;28;20033;-60
2022/06/07 00:43:14;;;;;;;1.58;0.80;;;;;;;15.05;72.12;97374.84;5066003;28;20145;-60
2022/06/07 00:45:41;;;;;;;2.67;1.00;;;;;;;14.94;72.22;97381.44;5066745;28;20033;-60
2022/06/07 00:48:08;;;;;;;2.13;0.90;;;;;;;14.87;74.82;97386.38;5067813;28;20046;-60
2022/06/07 00:50:50;;;;;;;3.85;1.00;;;;;;;14.77;75.04;97385.34;5066066;28;20701;-60
2022/06/07 00:53:36;;;;;;;1.38;0.80;;;;;;;14.70;74.87;97382.06;5066526;28;20083;-60
2022/06/07 00:56:21;;;;;;;1.98;0.85;;;;;;;14.66;74.82;97383.69;5065882;28;20067;-60
2022/06/07 00:58:48;;;;;;;2.72;0.93;;;;;;;14.55;75.41;97383.75;5066181;28;20044;-60
2022/06/07 01:01:15;;;;;;;3.17;0.90;;;;;;;14.47;77.28;97376.16;5065218;28;20575;-60
2022/06/07 01:03:44;;;;;;;1.70;0.90;;;;;;;14.47;76.83;97380.78;5066607;28;20059;-60
2022/06/07 01:11:45;;;;;;;3.53;0.90;;;;;;;14.33;78.90;97364.22;5061761;28;20041;-60
2022/06/07 01:14:12;;;;;;;4.57;1.88;;;;;;;14.34;78.51;97363.91;5065450;28;20045;-60
2022/06/07 01:16:39;;;;;;;1.85;0.82;;;;;;;14.35;79.03;97364.75;5066029;28;20051;-60
2022/06/07 01:19:05;;;;;;;3.58;0.85;;;;;;;14.33;78.89;97370.47;5064914;28;20515;-60
2022/06/07 01:21:37;;;;;;;1.73;1.08;;;;;;;14.27;78.85;97364.22;5062221;28;20071;-60
2022/06/07 01:24:07;;;;;;;3.53;1.37;;;;;;;14.28;79.45;97370.47;5064765;28;20568;-60
2022/06/07 01:26:57;;;;;;;5.72;0.90;;;;;;;14.25;79.76;97371.84;5067462;28;20367;-60
2022/06/07 01:29:24;;;;;;;2.92;1.00;;;;;;;14.20;78.90;97376.50;5065248;28;20227;-60
2022/06/07 01:31:51;;;;;;;2.63;1.15;;;;;;;14.07;79.59;97372.44;5065540;28;20048;-60
2022/06/07 01:34:21;;;;;;;2.43;1.13;;;;;;;13.97;80.49;97365.91;5065159;28;20075;-60
2022/06/07 01:36:48;;;;;;;4.78;0.90;;;;;;;13.87;82.30;97366.75;5065139;28;20405;-60
2022/06/07 01:42:00;;;;;;;1.77;0.90;;;;;;;13.85;82.94;97368.91;5054187;28;21199;-61
2022/06/07 01:44:35;;;;;;;2.85;0.90;;;;;;;13.84;82.82;97361.84;5065629;28;20046;-60
2022/06/07 01:47:03;;;;;;;3.13;1.00;;;;;;;13.78;82.06;97368.38;5065406;28;20725;-60
2022/06/07 01:49:32;;;;;;;2.17;0.88;;;;;;;13.72;82.49;97353.16;5065780;28;20086;-60
2022/06/07 01:52:00;;;;;;;4.00;1.08;;;;;;;13.55;85.39;97353.41;5065144;28;20052;-60
2022/06/07 01:54:30;;;;;;;2.75;1.13;;;;;;;13.36;87.07;97349.31;5064565;28;20044;-60
2022/06/07 01:56:57;;;;;;;3.63;1.35;;;;;;;13.29;89.72;97358.78;5059308;28;20558;-61
2022/06/07 01:59:23;;;;;;;3.28;1.25;;;;;;;13.17;90.27;97353.63;5055943;28;20044;-60
2022/06/07 02:01:51;;;;;;;3.72;1.50;;;;;;;13.15;90.53;97353.88;5054092;28;20037;-60
2022/06/07 02:04:21;;;;;;;2.13;1.10;;;;;;;13.14;92.04;97347.66;5064258;28;20044;-60
2022/06/07 02:06:49;;;;;;;1.63;0.90;;;;;;;13.19;91.10;97341.38;5065584;28;20058;-60
2022/06/07 02:09:22;;;;;;;3.05;1.60;;;;;;;13.15;91.69;97343.00;5064837;28;20045;-60
2022/06/07 02:11:50;;;;;;;3.17;1.10;;;;;;;13.06;92.49;97339.19;5064599;28;20040;-60
2022/06/07 02:14:16;;;;;;;3.50;1.38;;;;;;;13.01;94.31;97332.66;5065406;28;20048;-61
2022/06/07 02:16:43;;;;;;;2.53;1.48;;;;;;;12.87;95.74;97326.13;5065153;28;20041;-63
2022/06/07 02:19:10;;;;;;;3.10;1.30;;;;;;;12.69;96.66;97327.41;5064363;28;20044;-60
2022/06/07 02:21:40;;;;;;;5.82;1.55;;;;;;;12.78;97.49;97325.00;5063477;28;20600;-60
2022/06/07 02:24:09;;;;;;;4.20;1.27;;;;;;;12.75;96.59;97329.06;5062881;28;20533;-60
2022/06/07 02:26:43;;;;;;;2.65;1.30;;;;;;;12.76;95.09;97319.84;5064689;28;20045;-60
2022/06/07 02:29:29;;;;;;;2.80;1.40;;;;;;;12.83;92.97;97322.31;5065150;28;20047;-60
2022/06/07 02:32:00;;;;;;;2.20;1.63;;;;;;;12.82;92.75;97321.47;5063947;28;20040;-60
2022/06/07 02:34:27;;;;;;;2.15;1.10;;;;;;;12.88;93.99;97311.44;5056012;28;20052;-60
2022/06/07 02:36:59;;;;;;;3.75;1.48;;;;;;;12.88;96.89;97306.84;5064792;28;20048;-60
2022/06/07 02:39:28;;;;;;;2.22;1.30;;;;;;;12.75;96.88;97315.47;5065730;28;20560;-60
2022/06/07 02:41:58;;;;;;;2.80;1.23;;;;;;;12.67;98.66;97307.84;5065749;28;20040;-60
2022/06/07 02:44:24;;;;;;;6.30;1.98;;;;;;;12.68;99.15;97302.16;5047475;28;20056;-60
2022/06/07 02:46:51;;;;;;;3.28;1.50;;;;;;;12.67;98.06;97305.13;5065557;28;20041;-61
2022/06/07 02:49:18;;;;;;;2.40;1.40;;;;;;;12.64;98.25;97294.81;5065181;28;20075;-60
2022/06/07 02:51:45;;;;;;;1.98;1.20;;;;;;;12.64;98.35;97297.53;5085040;28;20075;-60
2022/06/07 02:54:19;;;;;;;4.15;1.60;;;;;;;12.59;98.26;97296.44;5075088;28;20075;-60
2022/06/07 02:56:45;;;;;;;6.05;1.52;;;;;;;12.54;98.75;97303.75;5061942;28;20060;-60
2022/06/07 02:59:13;;;;;;;6.82;1.50;;;;;;;12.51;99.17;97296.13;5063353;28;20040;-60
2022/06/07 03:01:39;;;;;;;3.60;1.13;;;;;;;12.52;97.40;97295.84;5063615;28;20051;-60
2022/06/07 03:04:06;;;;;;;2.90;1.30;;;;;;;12.62;96.10;97292.38;5064204;28;20051;-60
2022/06/07 03:06:35;;;;;;;4.18;1.42;;;;;;;12.77;95.66;97297.03;5062958;28;20056;-60
2022/06/07 03:09:02;;;;;;;1.85;1.10;;;;;;;12.66;95.46;97293.47;5065193;28;20063;-60
2022/06/07 03:11:30;;;;;;;5.85;1.35;;;;;;;12.61;96.50;97290.75;5057940;28;20040;-60
2022/06/07 03:13:57;;;;;;;4.55;1.55;;;;;;;12.63;96.27;97290.47;5061288;28;20048;-60
2022/06/07 03:16:28;;;;;;;2.42;1.13;;;;;;;12.51;95.67;97291.50;5063597;28;20132;-60
2022/06/07 03:18:58;;;;;;;3.05;1.40;;;;;;;12.69;94.86;97287.50;5063391;28;20726;-60
2022/06/07 03:21:25;;;;;;;2.20;1.20;;;;;;;12.83;91.42;97295.94;5061057;28;20117;-60
2022/06/07 03:23:52;;;;;;;2.80;0.90;;;;;;;12.96;88.59;97296.50;5062679;28;20704;-61
2022/06/07 03:26:18;;;;;;;1.63;0.90;;;;;;;12.97;90.13;97293.53;5062147;28;20055;-60
2022/06/07 03:28:53;;;;;;;2.22;0.95;;;;;;;12.94;91.13;97294.06;5063378;28;20446;-60
2022/06/07 03:31:21;;;;;;;2.55;1.10;;;;;;;12.93;92.19;97295.16;5062584;28;20040;-61
2022/06/07 03:33:52;;;;;;;3.20;1.27;;;;;;;12.91;92.40;97294.63;5063627;28;20090;-61
2022/06/07 03:36:28;;;;;;;5.25;1.10;;;;;;;12.97;90.29;97292.72;5063875;28;20072;-60
2022/06/07 03:39:01;;;;;;;1.63;0.90;;;;;;;12.88;91.19;97295.13;5064373;28;20060;-60
2022/06/07 03:41:32;;;;;;;3.47;1.20;;;;;;;12.86;91.93;97289.13;5063378;28;20098;-60
2022/06/07 03:44:09;;;;;;;4.88;1.50;;;;;;;12.78;91.49;97287.78;5063697;28;20047;-60
2022/06/07 03:46:43;;;;;;;3.20;0.85;;;;;;;12.99;87.84;97288.66;5069869;28;20101;-60
2022/06/07 03:49:10;;;;;;;2.53;1.10;;;;;;;13.17;88.14;97281.03;5066555;28;20578;-60
2022/06/07 03:51:37;;;;;;;1.83;1.02;;;;;;;13.04;90.02;97287.81;5072814;28;20036;-60
2022/06/07 03:54:04;;;;;;;2.65;0.98;;;;;;;13.07;89.66;97298.16;5065568;28;20040;-61
2022/06/07 03:56:33;;;;;;;3.10;1.40;;;;;;;13.12;86.85;97295.44;5063616;28;20036;-60
2022/06/07 03:59:02;;;;;;;2.28;1.10;;;;;;;13.27;85.65;97296.56;5070857;28;20045;-60
2022/06/07 04:01:29;;;;;;;3.28;0.88;;;;;;;13.32;84.61;97307.44;5064924;28;20048;-60
2022/06/07 04:04:01;;;;;;;2.25;1.08;;;;;;;13.43;83.44;97304.69;5066562;28;20036;-60
2022/06/07 04:09:41;;;;;;;1.88;0.70;;;;;;;13.60;81.62;97305.25;5068143;28;20036;-60
2022/06/07 04:12:16;;;;;;;2.22;1.10;;;;;;;13.51;83.77;97302.28;5074119;28;20113;-60
2022/06/07 04:14:45;;;;;;;2.15;1.05;;;;;;;13.44;86.98;97309.03;5075105;28;20040;-60
2022/06/07 04:17:13;;;;;;;2.58;1.00;;;;;;;13.20;88.95;97307.66;5067843;28;20056;-60
2022/06/07 04:19:44;;;;;;;3.25;1.00;;;;;;;13.07;89.90;97313.63;5077184;28;20048;-60
2022/06/07 04:22:12;;;;;;;10.23;1.88;;;;;;;12.99;91.13;97315.00;5082533;28;20052;-61
2022/06/07 04:24:45;;;;;;;2.00;1.10;;;;;;;12.93;90.20;97310.66;5064077;28;20588;-60
2022/06/07 04:27:13;;;;;;;3.58;1.35;;;;;;;13.01;91.18;97310.09;5064394;28;20079;-60
2022/06/07 04:29:44;;;;;;;3.22;1.27;;;;;;;13.03;89.60;97313.38;5048889;28;20056;-60
2022/06/07 04:32:12;;;;;;;4.20;1.13;;;;;;;13.14;87.92;97308.75;5064231;28;20066;-61
2022/06/07 04:34:41;;;;;;;1.58;1.00;;;;;;;13.37;84.75;97312.84;5064654;28;20090;-61
2022/06/07 04:37:08;;;;;;;2.05;1.15;;;;;;;13.54;82.74;97317.25;5064343;28;20036;-61
2022/06/07 04:39:35;;;;;;;2.47;1.08;;;;;;;13.65;82.66;97316.13;5065740;28;20044;-60
2022/06/07 04:42:08;;;;;;;2.53;0.95;;;;;;;13.64;82.63;97314.50;5064166;28;20098;-61
2022/06/07 04:44:51;;;;;;;;;;;;;;;13.84;80.97;97312.03;5065307;28;20032;-60
2022/06/07 04:47:22;;;;;;;2.13;0.77;;;;;;;13.95;80.74;97318.28;5063883;28;19973;-60
2022/06/07 04:49:49;;;;;;;3.47;0.88;;;;;;;14.00;81.06;97318.25;5064803;28;20071;-60
2022/06/07 04:52:16;;;;;;;2.25;0.85;;;;;;;14.12;81.33;97317.97;5063123;28;20049;-61
2022/06/07 04:54:49;;;;;;;3.17;0.98;;;;;;;14.21;79.19;97320.94;5074533;28;20119;-60
2022/06/07 04:57:18;;;;;;;2.38;1.00;;;;;;;14.29;78.80;97323.09;5064848;28;20048;-61
2022/06/07 04:59:45;;;;;;;2.42;0.90;;;;;;;14.38;78.83;97334.22;5063019;28;20048;-60
2022/06/07 05:02:11;;;;;;;3.45;0.98;;;;;;;14.43;78.71;97334.22;5067120;28;20044;-61
2022/06/07 05:04:39;;;;;;;3.33;0.98;;;;;;;14.55;77.64;97328.44;5065437;28;20106;-60
2022/06/07 05:07:13;;;;;;;2.08;0.85;;;;;;;14.57;76.70;97343.41;5064498;28;20040;-60
2022/06/07 05:10:10;;;;;;;3.00;0.95;;;;;;;14.68;77.61;97338.72;5071753;28;20142;-60
2022/06/07 05:12:42;;;;;;;1.67;0.93;;;;;;;14.69;76.38;97332.19;5077208;28;20404;-60
2022/06/07 05:15:14;;;;;;;2.00;0.98;;;;;;;14.73;75.68;97347.97;5064237;28;20052;-60
2022/06/07 05:18:04;;;;;;;3.05;1.00;;;;;;;14.47;77.69;97343.47;5065128;28;20076;-60
2022/06/07 05:20:33;;;;;;;1.58;0.90;;;;;;;14.52;77.93;97348.88;5063650;28;20044;-61
2022/06/07 05:23:06;;;;;;;1.05;0.80;;;;;;;14.55;79.38;97348.34;5064537;28;20052;-60
2022/06/07 05:25:35;;;;;;;5.20;1.13;;;;;;;14.51;79.27;97354.59;5062981;28;20417;-61
2022/06/07 05:28:02;;;;;;;4.25;1.20;;;;;;;14.51;80.58;97360.06;5064436;28;20068;-60
2022/06/07 05:30:32;;;;;;;2.95;0.98;;;;;;;14.59;78.55;97353.22;5062894;28;20044;-60
2022/06/07 05:33:16;;;;;;;3.08;1.05;;;;;;;14.63;78.60;97357.81;5062201;28;20058;-60
2022/06/07 05:35:48;;;;;;;3.88;1.10;;;;;;;14.69;78.59;97364.91;5068369;28;20139;-59
2022/06/07 05:38:17;;;;;;;1.73;1.02;;;;;;;14.60;78.51;97369.31;5064147;28;20058;-60
2022/06/07 05:40:52;;;;;;;1.95;0.93;;;;;;;14.55;78.44;97363.84;5063503;28;20094;-60
2022/06/07 05:43:20;;;;;;;2.83;1.08;;;;;;;14.55;80.28;97363.84;5063094;28;20056;-60
2022/06/07 05:45:53;;;;;;;1.17;0.70;;;;;;;14.55;78.34;97369.31;5064222;28;20079;-60
2022/06/07 05:48:33;;;;;;;1.88;0.90;;;;;;;14.66;77.98;97370.06;5063294;28;20052;-60
2022/06/07 05:51:02;;;;;;;1.90;0.85;;;;;;;14.79;76.76;97368.69;5077375;28;20672;-60
2022/06/07 05:53:29;;;;;;;4.63;1.20;;;;;;;14.95;76.90;97366.72;5061836;28;20045;-61
2022/06/07 05:55:56;;;;;;;3.03;0.80;;;;;;;15.08;76.33;97363.34;5064381;28;20075;-60
2022/06/07 05:58:25;;;;;;;2.63;0.82;;;;;;;15.13;75.83;97356.25;5064869;28;20044;-57
2022/06/07 06:00:55;;;;;;;2.50;1.00;;;;;;;15.32;74.64;97359.94;5069761;28;20071;-57
2022/06/07 06:03:25;;;;;;;2.38;0.75;;;;;;;15.64;72.93;97357.81;5069440;28;20550;-58
2022/06/07 06:05:52;;;;;;;1.73;0.80;;;;;;;15.67;71.73;97359.16;5061303;28;20045;-58
2022/06/07 06:11:21;;;;;;;2.85;0.82;;;;;;;15.71;71.64;97363.72;5064777;28;19924;-58
2022/06/07 06:14:21;;;;;;;1.20;0.77;;;;;;;15.67;72.61;97373.59;5052586;28;20067;-58
2022/06/07 06:16:52;;;;;;;2.17;0.60;;;;;;;15.84;71.69;97375.09;5062754;28;20599;-56
2022/06/07 06:19:32;;;;;;;2.80;0.77;;;;;;;15.86;71.94;97372.91;5061390;28;20044;-57
2022/06/07 06:22:00;;;;;;;5.45;1.00;;;;;;;15.78;71.21;97374.34;5069958;28;20085;-57
2022/06/07 06:24:28;;;;;;;5.88;1.15;;;;;;;15.71;71.38;97374.66;5070864;28;20044;-58
2022/06/07 06:26:56;;;;;;;1.52;0.80;;;;;;;15.72;71.01;97372.75;5062361;28;20049;-57
2022/06/07 06:29:27;;;;;;;2.75;0.80;;;;;;;16.01;72.16;97371.97;5063378;28;20045;-57
2022/06/07 06:31:55;;;;;;;1.83;0.85;;;;;;;16.29;71.32;97365.97;5074648;28;20098;-57
2022/06/07 06:34:29;;;;;;;1.42;0.60;;;;;;;16.35;68.85;97370.28;5061879;28;20044;-55
2022/06/07 06:36:58;;;;;;;1.27;0.70;;;;;;;16.37;68.94;97362.63;5061519;28;20048;-52
2022/06/07 06:39:29;;;;;;;2.92;1.23;;;;;;;16.40;69.25;97361.22;5062359;28;20055;-64
2022/06/07 06:41:56;;;;;;;2.75;0.90;;;;;;;16.51;70.58;97371.72;5058999;28;20044;-64
2022/06/07 06:44:37;;;;;;;4.65;1.00;;;;;;;16.43;69.15;97372.38;5063233;28;20068;-64
2022/06/07 06:47:04;;;;;;;1.25;0.68;;;;;;;16.38;68.48;97369.69;5063054;28;20044;-64
2022/06/07 06:49:32;;;;;;;2.28;0.80;;;;;;;16.56;69.58;97372.78;5062585;28;20048;-64
2022/06/07 06:52:05;;;;;;;2.97;0.90;;;;;;;16.62;68.16;97368.91;5062835;28;20050;-64
2022/06/07 06:54:34;;;;;;;5.18;1.10;;;;;;;16.64;67.45;97378.44;5062381;28;20052;-64
2022/06/07 06:57:06;;;;;;;2.20;0.70;;;;;;;16.83;65.99;97374.09;5060961;28;20411;-64
2022/06/07 06:59:33;;;;;;;2.70;1.00;;;;;;;17.06;65.81;97368.91;5062376;28;20174;-64
2022/06/07 07:02:01;;;;;;;2.63;0.88;;;;;;;17.15;64.19;97359.72;5061360;28;20040;-64
2022/06/07 07:04:38;;;;;;;2.60;1.10;;;;;;;17.06;64.20;97360.72;5062359;28;20049;-64
2022/06/07 07:07:06;;;;;;;2.70;0.85;;;;;;;17.35;63.82;97363.28;5061617;28;20134;-64
2022/06/07 07:09:33;;;;;;;1.88;0.90;;;;;;;17.33;63.08;97364.69;5062204;28;20049;-63
2022/06/07 07:12:04;;;;;;;1.73;0.80;;;;;;;17.45;63.66;97359.59;5061853;28;20040;-64
2022/06/07 07:14:48;;;;;;;3.10;0.80;;;;;;;17.92;61.93;97364.31;5063073;28;20052;-64
2022/06/07 07:17:25;;;;;;;3.72;1.10;;;;;;;17.89;61.59;97357.50;5061701;28;20052;-63
2022/06/07 07:19:55;;;;;;;3.42;0.80;;;;;;;18.15;61.40;97362.56;5075266;28;20135;-64
2022/06/07 07:22:22;;;;;;;1.67;0.73;;;;;;;18.01;62.13;97364.41;5063898;28;20090;-64
2022/06/07 07:24:50;;;;;;;1.75;0.70;;;;;;;18.10;61.69;97375.53;5061136;28;20042;-64
2022/06/07 07:27:19;;;;;;;2.55;0.80;;;;;;;18.48;61.45;97369.06;5061535;28;20072;-64
2022/06/07 07:29:46;;;;;;;1.30;0.60;;;;;;;18.33;60.41;97366.31;5062501;28;20051;-64
2022/06/07 07:32:17;;;;;;;1.23;0.68;;;;;;;18.50;59.80;97369.59;5071784;28;20060;-63
2022/06/07 07:34:50;;;;;;;1.58;0.80;;;;;;;18.59;59.46;97360.38;5070731;28;20163;-63
2022/06/07 07:37:18;;;;;;;2.15;0.70;;;;;;;18.08;61.11;97362.13;5065810;28;20044;-64
2022/06/07 07:39:46;;;;;;;1.90;0.70;;;;;;;18.15;61.72;97359.81;5066093;28;20052;-63
2022/06/07 07:42:17;;;;;;;1.70;0.77;;;;;;;18.33;60.84;97360.84;5080458;28;20078;-63
2022/06/07 07:44:54;;;;;;;2.97;0.73;;;;;;;18.30;61.65;97366.13;5059989;28;20050;-63
2022/06/07 07:47:22;;;;;;;1.48;0.50;;;;;;;18.59;58.01;97367.75;5062589;28;20048;-63
2022/06/07 07:49:48;;;;;;;2.22;0.80;;;;;;;18.04;59.53;97369.31;5065178;28;20411;-64
2022/06/07 07:52:19;;;;;;;1.92;0.60;;;;;;;17.92;59.76;97367.84;5065871;28;20047;-64
2022/06/07 07:54:53;;;;;;;1.65;0.60;;;;;;;18.03;60.62;97371.22;5065720;28;20048;-64
2022/06/07 07:57:19;;;;;;;2.33;0.68;;;;;;;18.42;60.15;97362.88;5067833;28;20056;-64
2022/06/07 07:59:47;;;;;;;2.58;0.70;;;;;;;18.53;61.59;97358.81;5078696;28;20131;-63
2022/06/07 08:02:19;;;;;;;2.05;0.73;;;;;;;18.04;61.51;97359.16;5064806;28;20040;-64
2022/06/07 08:04:50;;;;;;;2.78;0.80;;;;;;;17.76;61.38;97366.50;5065747;28;20090;-63
2022/06/07 08:07:17;;;;;;;1.35;0.75;;;;;;;17.83;62.28;97363.38;5070126;28;20071;-64
2022/06/07 08:09:44;;;;;;;1.85;0.77;;;;;;;17.71;61.56;97364.66;5066539;28;20055;-64
2022/06/07 08:12:10;;;;;;;1.65;0.60;;;;;;;17.80;60.60;97368.31;5080360;28;20112;-63
2022/06/07 08:14:37;;;;;;;1.02;0.60;;;;;;;17.62;61.74;97361.78;5074967;28;20048;-63
2022/06/07 08:17:04;;;;;;;2.65;0.80;;;;;;;17.42;62.70;97354.69;5075859;28;20052;-63
2022/06/07 08:19:31;;;;;;;3.97;0.80;;;;;;;17.39;61.02;97358.03;5068386;28;20097;-64
2022/06/07 08:21:58;;;;;;;2.60;1.38;;;;;;;17.45;61.15;97359.59;5073064;28;20048;-63
2022/06/07 08:24:25;;;;;;;1.27;0.60;;;;;;;17.32;61.76;97365.81;5083654;28;20058;-64
2022/06/07 08:26:52;;;;;;;1.52;0.70;;;;;;;17.58;62.38;97362.69;5066243;28;20062;-64
2022/06/07 08:29:22;;;;;;;3.08;1.13;;;;;;;17.69;59.91;97355.91;5067225;28;20048;-64
2022/06/07 08:31:48;;;;;;;1.25;0.70;;;;;;;17.99;60.51;97355.69;5065825;28;20040;-64
2022/06/07 08:39:47;;;;;;;3.00;1.25;;;;;;;18.14;58.92;97352.69;5071564;28;20640;-64
2022/06/07 08:42:28;;;;;;;1.67;0.90;;;;;;;18.40;56.47;97356.91;5070965;28;20044;-64
2022/06/07 08:45:06;;;;;;;2.70;0.60;;;;;;;18.92;57.57;97351.19;5060995;28;20040;-64
2022/06/07 08:47:46;;;;;;;9.52;1.23;;;;;;;19.32;54.38;97345.09;5069547;28;20048;-63
2022/06/07 08:50:19;;;;;;;1.17;0.85;;;;;;;19.19;54.94;97348.69;5065770;28;20048;-64
2022/06/07 08:52:48;;;;;;;0.68;0.52;;;;;;;19.88;53.50;97336.63;5065561;28;20147;-64
2022/06/07 08:55:32;;;;;;;2.40;0.85;;;;;;;19.34;52.30;97347.53;5073779;28;20044;-64
2022/06/07 08:58:08;;;;;;;1.48;0.88;;;;;;;19.39;52.58;97344.69;5057866;28;20044;-64
2022/06/07 09:00:36;;;;;;;2.78;0.80;;;;;;;19.17;52.76;97335.28;5066143;28;20048;-63
2022/06/07 09:03:20;;;;;;;1.58;0.60;;;;;;;19.37;52.21;97335.94;5064961;28;20458;-64
2022/06/07 09:05:57;;;;;;;1.90;0.70;;;;;;;19.56;52.48;97335.75;5066054;28;20396;-64
2022/06/07 09:08:28;;;;;;;2.67;0.80;;;;;;;19.22;54.62;97329.69;5065660;28;20048;-65
2022/06/07 09:13:50;;;;;;;1.08;0.63;;;;;;;18.90;53.02;97333.41;5065288;28;20127;-65
2022/06/07 09:16:17;;;;;;;1.20;0.55;;;;;;;18.79;55.08;97325.38;5065874;28;20510;-63
2022/06/07 09:18:45;;;;;;;1.55;0.70;;;;;;;19.05;54.12;97324.03;5071686;28;20418;-64
2022/06/07 09:21:40;;;;;;;1.75;0.70;;;;;;;19.21;53.17;97308.03;5072782;28;20561;-63
2022/06/07 09:24:25;;;;;;;0.50;0.50;;;;;;;19.47;51.70;97313.72;5055445;28;20048;-64
2022/06/07 09:27:04;;;;;;;1.48;0.77;;;;;;;19.73;51.93;97306.78;5070100;28;20052;-63
2022/06/07 09:29:38;;;;;;;3.83;0.80;;;;;;;19.52;51.63;97306.47;5071712;28;20491;-64
2022/06/07 09:32:18;;;;;;;2.45;0.88;;;;;;;18.99;54.00;97315.09;5065256;28;20526;-64
2022/06/07 09:34:54;;;;;;;3.70;0.70;;;;;;;18.88;52.44;97309.03;5065219;28;20052;-64
2022/06/07 09:37:28;;;;;;;0.82;0.50;;;;;;;18.92;51.65;97314.69;5064475;28;20404;-64
2022/06/07 09:40:02;;;;;;;1.45;0.60;;;;;;;18.95;52.95;97308.59;5062768;28;20048;-64
2022/06/07 09:42:30;;;;;;;3.35;0.70;;;;;;;18.96;53.55;97310.22;5065618;28;20049;-64
2022/06/07 09:45:20;;;;;;;0.77;0.70;;;;;;;18.98;54.36;97308.78;5064453;28;20067;-63
2022/06/07 09:47:47;;;;;;;1.35;0.80;;;;;;;19.30;52.60;97299.88;5072434;28;20047;-63
2022/06/07 09:50:34;;;;;;;2.22;0.90;;;;;;;19.83;53.35;97301.03;5064718;28;20075;-63
2022/06/07 09:53:15;;;;;;;1.35;0.60;;;;;;;20.05;49.37;97299.38;5064993;28;20052;-63
2022/06/07 09:55:57;;;;;;;0.73;0.60;;;;;;;20.20;49.63;97291.84;5063723;28;20686;-64
2022/06/07 09:59:01;;;;;;;1.65;0.80;;;;;;;19.87;51.89;97293.78;5076679;28;20040;-64
2022/06/07 10:01:51;;;;;;;3.17;0.80;;;;;;;19.56;51.36;97296.50;5055087;28;20049;-64
2022/06/07 10:04:23;;;;;;;1.75;0.70;;;;;;;19.55;52.36;97292.94;5064457;28;20060;-63
2022/06/07 10:07:16;;;;;;;1.00;0.60;;;;;;;18.92;53.60;97288.09;5056642;28;20071;-64
2022/06/07 10:09:58;;;;;;;3.00;0.80;;;;;;;19.16;54.32;97286.22;5064227;28;20507;-64
2022/06/07 10:12:24;;;;;;;1.60;0.68;;;;;;;19.28;53.59;97280.97;5070911;28;20048;-64
2022/06/07 10:15:17;;;;;;;3.47;0.65;;;;;;;19.35;54.63;97286.84;5083858;28;20044;-64
2022/06/07 10:17:49;;;;;;;3.05;0.80;;;;;;;19.45;52.56;97282.22;5064615;28;20040;-64
2022/06/07 10:21:00;;;;;;;2.22;0.80;;;;;;;19.44;52.25;97275.91;5063857;28;20118;-64
2022/06/07 10:23:37;;;;;;;1.42;0.75;;;;;;;20.07;52.31;97274.31;5076517;28;20146;-64
2022/06/07 10:26:26;;;;;;;2.97;0.50;;;;;;;20.51;49.65;97275.28;5062893;28;20051;-64
2022/06/07 10:29:12;;;;;;;2.75;0.80;;;;;;;21.00;48.26;97260.66;5062694;28;20047;-64
2022/06/07 10:31:58;;;;;;;2.67;0.63;;;;;;;20.75;49.44;97263.03;5072866;28;20050;-63
2022/06/07 10:34:36;;;;;;;2.15;1.02;;;;;;;20.37;49.84;97258.91;5058698;28;20045;-63
2022/06/07 10:37:18;;;;;;;2.97;0.60;;;;;;;20.04;49.40;97264.00;5053882;28;20044;-64
2022/06/07 10:40:02;;;;;;;1.33;0.55;;;;;;;19.91;51.43;97263.75;5068228;28;20052;-65
2022/06/07 10:42:43;;;;;;;1.50;0.88;;;;;;;19.40;52.68;97258.44;5058767;28;20527;-64
2022/06/07 10:45:19;;;;;;;3.85;1.17;;;;;;;19.17;52.61;97266.66;5060703;28;20044;-64
2022/06/07 10:48:27;;;;;;;3.22;1.27;;;;;;;18.90;53.45;97268.38;5064135;28;20042;-64
2022/06/07 10:51:06;;;;;;;3.17;1.48;;;;;;;18.85;54.32;97255.59;5063614;28;20074;-64
2022/06/07 10:53:44;;;;;;;1.55;0.75;;;;;;;18.82;54.06;97261.69;5064518;28;20618;-63
2022/06/07 10:56:23;;;;;;;0.75;0.50;;;;;;;18.82;54.99;97258.94;5062148;28;20040;-64
2022/06/07 10:58:55;;;;;;;2.95;0.80;;;;;;;18.81;54.91;97262.81;5058577;28;20037;-64
2022/06/07 11:01:37;;;;;;;1.35;0.60;;;;;;;18.76;54.73;97253.91;5059246;28;20052;-64
2022/06/07 11:10:29;;;;;;;1.55;0.60;;;;;;;19.80;52.35;97263.22;5065920;28;20049;-64
2022/06/07 11:13:17;;;;;;;1.60;0.60;;;;;;;20.26;50.70;97260.34;5076972;28;20040;-64
2022/06/07 11:16:01;;;;;;;4.57;1.10;;;;;;;20.85;48.03;97263.84;5063546;28;20056;-64
2022/06/07 11:18:28;;;;;;;0.90;0.70;;;;;;;21.21;48.20;97253.66;5063671;28;20064;-64
2022/06/07 11:21:01;;;;;;;1.30;0.60;;;;;;;20.98;48.40;97243.66;5063853;28;20083;-65
2022/06/07 11:23:37;;;;;;;1.67;0.70;;;;;;;21.56;48.10;97243.41;5056274;28;20036;-64
2022/06/07 11:26:18;;;;;;;2.67;0.60;;;;;;;21.15;48.47;97233.75;5059093;28;20256;-64
2022/06/07 11:28:53;;;;;;;3.20;0.85;;;;;;;21.22;48.75;97236.03;5062423;28;20056;-65
2022/06/07 11:31:23;;;;;;;2.67;0.70;;;;;;;20.09;51.05;97233.63;5063848;28;20048;-64
2022/06/07 11:33:52;;;;;;;1.05;0.52;;;;;;;19.84;52.87;97233.97;5063173;28;20049;-63
2022/06/07 11:36:25;;;;;;;0.90;0.60;;;;;;;19.82;52.85;97235.41;5065457;28;20044;-64
2022/06/07 11:38:57;;;;;;;2.35;0.77;;;;;;;19.62;52.69;97235.66;5062799;28;20051;-64
2022/06/07 11:41:39;;;;;;;2.15;0.75;;;;;;;19.63;54.04;97225.47;5063385;28;20053;-63
2022/06/07 11:44:10;;;;;;;1.55;0.70;;;;;;;20.27;52.07;97238.03;5065596;28;20423;-64
2022/06/07 11:46:50;;;;;;;2.65;0.85;;;;;;;20.59;51.75;97229.69;5065209;28;20045;-63
2022/06/07 11:49:23;;;;;;;2.22;0.70;;;;;;;21.04;50.48;97234.09;5065760;28;20105;-64
2022/06/07 11:52:19;;;;;;;1.42;0.68;;;;;;;21.17;50.57;97226.81;5065030;28;20094;-64
2022/06/07 11:54:47;;;;;;;1.95;0.80;;;;;;;21.18;51.30;97224.84;5063902;28;20047;-64
2022/06/07 11:57:52;;;;;;;2.10;0.90;;;;;;;21.25;51.06;97225.19;5059696;28;20141;-64
2022/06/07 12:00:36;;;;;;;1.23;0.70;;;;;;;20.54;53.24;97216.88;5063891;28;20073;-64
2022/06/07 12:03:07;;;;;;;1.23;0.73;;;;;;;20.47;52.10;97221.25;5065224;28;20094;-64
2022/06/07 12:05:40;;;;;;;1.10;0.70;;;;;;;20.54;51.55;97222.38;5061455;28;20451;-63
2022/06/07 12:08:53;;;;;;;2.85;0.80;;;;;;;20.33;53.85;97211.19;5062995;28;20391;-64
2022/06/07 12:11:23;;;;;;;0.63;0.60;;;;;;;20.02;55.06;97206.59;5053327;28;20067;-63
2022/06/07 12:13:56;;;;;;;2.85;0.82;;;;;;;19.99;54.67;97197.06;5060300;28;20467;-64
2022/06/07 12:16:22;;;;;;;1.85;0.90;;;;;;;20.59;53.38;97196.66;5064667;28;20063;-64
2022/06/07 12:18:54;;;;;;;1.33;0.70;;;;;;;20.71;52.63;97192.47;5066815;28;20110;-65
2022/06/07 12:21:22;;;;;;;1.50;0.75;;;;;;;20.72;52.24;97200.41;5058564;28;20829;-64
2022/06/07 12:24:01;;;;;;;1.70;0.70;;;;;;;20.78;50.42;97198.28;5061264;28;20041;-64
2022/06/07 12:26:34;;;;;;;1.25;0.60;;;;;;;20.40;50.54;97191.47;5066393;28;20048;-65
2022/06/07 12:29:19;;;;;;;1.60;0.77;;;;;;;20.80;52.84;97193.28;5063519;28;20051;-64